DHT weather

Dalhart Municipal Airport
Dalhart, Texas, United States

Public forecast

Using degrees Fahrenheit for public forecast. Weather courtesy of forecast.io.

Current aviation weather report (METAR) for Dalhart Municipal Airport

Retrieved 2019/10/22 03:53 UTC (40 minutes ago):

KDHT 220353Z AUTO 36004KT 10SM CLR 06/M11 A3015 RMK AO2 SLP197 T00611106

Aviation forecast (TAF) for Dalhart Municipal Airport

Retrieved 2019-10-22 00:33 UTC (4 hours ago):

TAF KDHT 212331Z 2200/2224 31017KT P6SM FEW250 FM220200 01007KT P6SM SKC